createdAt,value
2018-03-15T00:01:32.233Z,1.50
2018-03-15T00:03:59.797Z,1.50
2018-03-15T00:06:27.360Z,1.50
2018-03-15T00:11:28.717Z,1.50
2018-03-15T00:13:56.651Z,1.60
2018-03-15T00:16:24.204Z,1.60
2018-03-15T00:18:51.768Z,1.60
2018-03-15T00:21:20.949Z,1.60
2018-03-15T00:23:48.513Z,1.60
2018-03-15T00:26:16.086Z,1.60
2018-03-15T00:28:43.654Z,1.60
2018-03-15T00:31:11.213Z,1.60
2018-03-15T00:33:40.754Z,1.60
2018-03-15T00:36:08.856Z,1.60
2018-03-15T00:38:36.882Z,1.60
2018-03-15T00:41:04.450Z,1.60
2018-03-15T00:43:31.995Z,1.60
2018-03-15T00:45:59.569Z,1.60
2018-03-15T00:48:27.109Z,1.60
2018-03-15T00:50:55.498Z,1.60
2018-03-15T00:53:23.065Z,1.60
2018-03-15T00:55:50.870Z,1.60
2018-03-15T00:58:19.088Z,1.70
2018-03-15T01:00:46.673Z,1.70
2018-03-15T01:03:15.187Z,1.70
2018-03-15T01:05:42.770Z,1.70
2018-03-15T01:08:18.026Z,1.70
2018-03-15T01:10:45.609Z,1.70
2018-03-15T01:13:13.148Z,1.70
2018-03-15T01:15:42.270Z,1.70
2018-03-15T01:18:09.851Z,1.70
2018-03-15T01:20:37.401Z,1.70
2018-03-15T01:23:05.724Z,1.70
2018-03-15T01:25:33.268Z,1.70
2018-03-15T01:28:02.741Z,1.70
2018-03-15T01:30:30.290Z,1.70
2018-03-15T01:32:57.849Z,1.70
2018-03-15T01:35:25.388Z,1.70
2018-03-15T01:37:54.333Z,1.70
2018-03-15T01:40:21.878Z,1.70
2018-03-15T01:42:49.492Z,1.70
2018-03-15T01:45:17.637Z,1.70
2018-03-15T01:47:45.489Z,1.70
2018-03-15T01:50:13.836Z,1.70
2018-03-15T01:52:42.897Z,1.70
2018-03-15T01:55:10.466Z,1.70
2018-03-15T01:57:38.769Z,1.70
2018-03-15T02:00:08.213Z,1.70
2018-03-15T02:02:35.768Z,1.70
2018-03-15T02:05:04.992Z,1.70
2018-03-15T02:07:32.538Z,1.70
2018-03-15T02:10:00.101Z,1.70
2018-03-15T02:12:29.990Z,1.70
2018-03-15T02:14:57.570Z,1.70
2018-03-15T02:17:25.108Z,1.70
2018-03-15T02:19:55.675Z,1.80
2018-03-15T02:22:23.249Z,1.80
2018-03-15T02:24:50.803Z,1.80
2018-03-15T02:27:18.382Z,1.80
2018-03-15T02:29:45.919Z,1.80
2018-03-15T02:32:14.973Z,1.80
2018-03-15T02:34:42.518Z,1.80
2018-03-15T02:37:10.077Z,1.80
2018-03-15T02:39:37.622Z,1.80
2018-03-15T02:42:07.009Z,1.80
2018-03-15T02:44:34.549Z,1.80
2018-03-15T02:47:05.346Z,1.80
2018-03-15T02:49:33.661Z,1.80
2018-03-15T02:52:02.793Z,1.80
2018-03-15T02:54:30.346Z,1.80
2018-03-15T02:56:57.886Z,1.80
2018-03-15T02:59:25.459Z,1.80
2018-03-15T03:01:53.014Z,1.80
2018-03-15T03:04:20.578Z,1.80
2018-03-15T03:06:48.117Z,1.80
2018-03-15T03:09:18.098Z,1.70
2018-03-15T03:11:45.639Z,1.70
2018-03-15T03:14:13.197Z,1.70
2018-03-15T03:16:40.732Z,1.70
2018-03-15T03:19:08.293Z,1.70
2018-03-15T03:21:35.831Z,1.70
2018-03-15T03:24:03.390Z,1.70
2018-03-15T03:26:30.927Z,1.70
2018-03-15T03:28:58.508Z,1.70
2018-03-15T03:31:27.109Z,1.70
2018-03-15T03:33:54.649Z,1.70
2018-03-15T03:36:23.692Z,1.70
2018-03-15T03:38:51.234Z,1.70
2018-03-15T03:41:18.793Z,1.70
2018-03-15T03:43:47.400Z,1.70
2018-03-15T03:46:14.966Z,1.70
2018-03-15T03:48:42.513Z,1.70
2018-03-15T03:51:11.537Z,1.60
2018-03-15T03:53:47.218Z,1.60
2018-03-15T03:56:14.783Z,1.60
2018-03-15T03:58:42.338Z,1.60
2018-03-15T04:01:09.902Z,1.60
2018-03-15T04:03:47.119Z,1.60
2018-03-15T04:06:14.673Z,1.50
2018-03-15T04:08:42.213Z,1.50
2018-03-15T04:11:09.778Z,1.50
2018-03-15T04:13:37.325Z,1.50
2018-03-15T04:16:04.910Z,1.50
2018-03-15T04:18:32.454Z,1.50
2018-03-15T04:21:00.000Z,1.50
2018-03-15T04:23:29.364Z,1.50
2018-03-15T04:25:56.900Z,1.50
2018-03-15T04:28:34.230Z,1.50
2018-03-15T04:31:01.778Z,1.40
2018-03-15T04:33:29.350Z,1.40
2018-03-15T04:35:56.917Z,1.40
2018-03-15T04:38:24.479Z,1.40
2018-03-15T04:40:52.788Z,1.40
2018-03-15T04:43:23.298Z,1.40
2018-03-15T04:45:50.841Z,1.40
2018-03-15T04:48:19.750Z,1.30
2018-03-15T04:50:47.294Z,1.30
2018-03-15T04:53:14.848Z,1.30
2018-03-15T04:55:42.426Z,1.30
2018-03-15T04:58:10.005Z,1.30
2018-03-15T05:00:37.634Z,1.30
2018-03-15T05:03:05.945Z,1.30
2018-03-15T05:05:37.122Z,1.30
2018-03-15T05:08:04.679Z,1.30
2018-03-15T05:10:32.242Z,1.30
2018-03-15T05:12:59.793Z,1.30
2018-03-15T05:15:27.352Z,1.30
2018-03-15T05:17:54.892Z,1.30
2018-03-15T05:20:23.566Z,1.30
2018-03-15T05:22:51.108Z,1.20
2018-03-15T05:25:19.778Z,1.20
2018-03-15T05:27:47.325Z,1.30
2018-03-15T05:30:14.856Z,1.30
2018-03-15T05:32:42.441Z,1.30
2018-03-15T05:37:44.108Z,1.20
2018-03-15T05:40:11.706Z,1.30
2018-03-15T05:42:39.265Z,1.30
2018-03-15T05:45:07.583Z,1.20
2018-03-15T05:47:35.142Z,1.20
2018-03-15T05:50:03.445Z,1.20
2018-03-15T05:52:31.007Z,1.20
2018-03-15T05:54:59.312Z,1.20
2018-03-15T05:57:26.872Z,1.10
2018-03-15T05:59:57.721Z,1.20
2018-03-15T06:02:25.294Z,1.10
2018-03-15T06:04:52.843Z,1.10
2018-03-15T06:07:21.156Z,1.10
2018-03-15T06:09:48.712Z,1.10
2018-03-15T06:12:17.951Z,1.10
2018-03-15T06:14:48.122Z,1.10
2018-03-15T06:17:15.702Z,1.10
2018-03-15T06:19:43.262Z,1.10
2018-03-15T06:22:10.814Z,1.10
2018-03-15T06:24:38.377Z,1.10
2018-03-15T06:27:08.079Z,1.10
2018-03-15T06:29:44.001Z,1.10
2018-03-15T06:32:11.546Z,1.00
2018-03-15T06:34:39.109Z,1.00
2018-03-15T06:37:06.652Z,1.00
2018-03-15T06:39:34.252Z,1.00
2018-03-15T06:42:03.454Z,1.10
2018-03-15T06:44:30.999Z,1.00
2018-03-15T06:46:58.571Z,1.00
2018-03-15T06:49:26.881Z,1.00
2018-03-15T06:51:54.441Z,1.00
2018-03-15T06:54:22.709Z,1.00
2018-03-15T06:56:51.022Z,1.00
2018-03-15T06:59:18.586Z,1.10
2018-03-15T07:01:46.950Z,1.00
2018-03-15T07:04:14.496Z,1.00
2018-03-15T07:06:42.047Z,1.10
2018-03-15T07:09:09.576Z,1.10
2018-03-15T07:11:38.896Z,1.10
2018-03-15T07:14:06.490Z,1.10
2018-03-15T07:16:34.057Z,1.10
2018-03-15T07:19:02.357Z,1.10
2018-03-15T07:21:31.050Z,1.10
2018-03-15T07:23:59.361Z,1.20
2018-03-15T07:26:28.762Z,1.20
2018-03-15T07:28:56.311Z,1.20
2018-03-15T07:31:24.639Z,1.20
2018-03-15T07:33:52.171Z,1.20
2018-03-15T07:36:21.470Z,1.20
2018-03-15T07:38:49.031Z,1.20
2018-03-15T07:41:17.021Z,1.30
2018-03-15T07:43:44.584Z,1.30
2018-03-15T07:46:12.157Z,1.30
2018-03-15T07:48:39.721Z,1.30
2018-03-15T07:51:08.972Z,1.30
2018-03-15T07:53:36.542Z,1.40
2018-03-15T07:56:04.856Z,1.40
2018-03-15T07:58:32.421Z,1.30
2018-03-15T08:01:01.497Z,1.40
2018-03-15T08:03:29.086Z,1.40
2018-03-15T08:05:57.409Z,1.50
2018-03-15T08:08:25.027Z,1.50
2018-03-15T08:10:52.565Z,1.60
2018-03-15T08:13:20.106Z,1.60
2018-03-15T08:15:47.686Z,1.70
2018-03-15T08:18:15.230Z,1.70
2018-03-15T08:20:42.781Z,1.80
2018-03-15T08:23:10.321Z,1.80
2018-03-15T08:25:37.872Z,1.80
2018-03-15T08:28:08.248Z,1.90
2018-03-15T08:30:35.806Z,2.00
2018-03-15T08:33:05.616Z,2.00
2018-03-15T08:35:33.191Z,2.10
2018-03-15T08:38:00.728Z,2.10
2018-03-15T08:40:30.236Z,2.10
2018-03-15T08:42:57.786Z,2.20
2018-03-15T08:45:25.345Z,2.30
2018-03-15T08:47:52.896Z,2.30
2018-03-15T08:50:20.448Z,2.30
2018-03-15T08:52:48.689Z,2.40
2018-03-15T08:55:16.252Z,2.50
2018-03-15T08:57:43.787Z,2.40
2018-03-15T09:00:11.391Z,2.40
2018-03-15T09:02:38.908Z,2.50
2018-03-15T09:05:07.212Z,2.50
2018-03-15T09:07:35.046Z,2.50
2018-03-15T09:10:02.653Z,2.50
2018-03-15T09:12:30.222Z,2.60
2018-03-15T09:14:57.781Z,2.60
2018-03-15T09:17:26.104Z,2.70
2018-03-15T09:19:53.647Z,2.70
2018-03-15T09:22:21.955Z,2.90
2018-03-15T09:24:49.501Z,2.90
2018-03-15T09:27:17.956Z,3.00
2018-03-15T09:29:45.540Z,3.10
2018-03-15T09:32:13.867Z,3.00
2018-03-15T09:34:41.427Z,1.50
2018-03-15T09:37:09.019Z,3.00
2018-03-15T09:39:36.571Z,2.90
2018-03-15T09:42:05.069Z,2.90
2018-03-15T09:44:32.674Z,3.00
2018-03-15T09:47:00.240Z,3.10
2018-03-15T09:49:27.819Z,3.10
2018-03-15T09:51:55.372Z,3.20
2018-03-15T09:54:22.969Z,3.30
2018-03-15T09:56:50.550Z,3.30
2018-03-15T09:59:18.124Z,3.30
2018-03-15T10:01:45.737Z,3.30
2018-03-15T10:04:13.320Z,3.30
2018-03-15T10:06:40.868Z,3.30
2018-03-15T10:09:09.213Z,3.40
2018-03-15T10:11:38.583Z,3.40
2018-03-15T10:14:06.165Z,3.40
2018-03-15T10:16:33.724Z,3.40
2018-03-15T10:19:02.048Z,3.30
2018-03-15T10:21:29.607Z,3.30
2018-03-15T10:23:57.173Z,3.40
2018-03-15T10:26:24.752Z,3.40
2018-03-15T10:28:52.316Z,3.30
2018-03-15T10:31:19.897Z,3.30
2018-03-15T10:33:48.817Z,3.40
2018-03-15T10:36:16.405Z,3.40
2018-03-15T10:38:44.742Z,3.40
2018-03-15T10:41:12.371Z,3.40
2018-03-15T10:43:39.936Z,3.40
2018-03-15T10:46:07.542Z,3.40
2018-03-15T10:48:35.895Z,3.20
2018-03-15T10:51:03.505Z,3.20
2018-03-15T10:53:31.827Z,3.20
2018-03-15T10:55:59.421Z,3.20
2018-03-15T10:58:27.075Z,3.20
2018-03-15T11:01:00.208Z,3.40
2018-03-15T11:03:33.436Z,3.50
2018-03-15T11:06:06.555Z,3.70
2018-03-15T11:08:35.779Z,3.70
2018-03-15T11:11:12.071Z,3.70
2018-03-15T11:13:39.635Z,3.90
2018-03-15T11:16:07.216Z,4.00
2018-03-15T11:18:34.802Z,4.30
2018-03-15T11:21:02.400Z,4.40
2018-03-15T11:23:29.963Z,4.50
2018-03-15T11:25:57.518Z,4.40
2018-03-15T11:28:25.092Z,4.40
2018-03-15T11:30:52.641Z,4.40
2018-03-15T11:33:20.228Z,4.50
2018-03-15T11:35:47.797Z,4.60
2018-03-15T11:38:15.386Z,4.60
2018-03-15T11:40:42.932Z,4.60
2018-03-15T11:43:10.514Z,4.60
2018-03-15T11:45:38.077Z,4.60
2018-03-15T11:48:05.656Z,4.80
2018-03-15T11:50:33.207Z,5.00
2018-03-15T11:53:01.548Z,4.70
2018-03-15T11:55:29.113Z,4.60
2018-03-15T11:57:57.253Z,4.40
2018-03-15T12:00:24.821Z,4.40
2018-03-15T12:02:53.157Z,4.00
2018-03-15T12:05:20.720Z,4.00
2018-03-15T12:07:48.320Z,4.00
2018-03-15T12:10:16.097Z,3.90
2018-03-15T12:12:43.665Z,3.80
2018-03-15T12:15:12.016Z,3.90
2018-03-15T12:17:39.573Z,3.90
2018-03-15T12:20:07.900Z,3.90
2018-03-15T12:22:35.444Z,3.90
2018-03-15T12:25:03.000Z,3.80
2018-03-15T12:27:31.305Z,3.70
2018-03-15T12:29:59.634Z,3.70
2018-03-15T12:32:27.185Z,3.70
2018-03-15T12:34:54.797Z,3.60
2018-03-15T12:37:22.369Z,3.70
2018-03-15T12:39:49.929Z,3.70
2018-03-15T12:42:17.481Z,3.60
2018-03-15T12:44:45.032Z,3.60
2018-03-15T12:47:13.337Z,3.70
2018-03-15T12:49:40.898Z,3.70
2018-03-15T12:52:08.444Z,3.60
2018-03-15T12:54:35.991Z,3.50
2018-03-15T12:57:03.563Z,3.50
2018-03-15T12:59:31.104Z,3.50
2018-03-15T13:01:58.661Z,3.50
2018-03-15T13:04:26.200Z,3.50
2018-03-15T13:06:53.755Z,3.50
2018-03-15T13:09:21.313Z,3.50
2018-03-15T13:11:48.896Z,3.60
2018-03-15T13:14:16.436Z,3.60
2018-03-15T13:16:43.989Z,3.50
2018-03-15T13:19:11.537Z,3.50
2018-03-15T13:21:39.856Z,3.50
2018-03-15T13:24:07.412Z,3.50
2018-03-15T13:26:35.743Z,3.50
2018-03-15T13:29:03.279Z,3.50
2018-03-15T13:31:30.837Z,3.50
2018-03-15T13:33:59.145Z,3.60
2018-03-15T13:36:26.694Z,3.60
2018-03-15T13:38:55.029Z,3.60
2018-03-15T13:41:24.097Z,3.60
2018-03-15T13:43:52.445Z,3.70
2018-03-15T13:46:19.996Z,3.70
2018-03-15T13:48:48.069Z,3.70
2018-03-15T13:51:15.614Z,3.80
2018-03-15T13:53:43.961Z,3.70
2018-03-15T13:56:11.515Z,3.70
2018-03-15T13:58:39.081Z,3.60
2018-03-15T14:01:06.619Z,3.60
2018-03-15T14:03:34.945Z,3.80
2018-03-15T14:06:02.503Z,3.80
2018-03-15T14:08:30.055Z,4.10
2018-03-15T14:10:57.620Z,4.50
2018-03-15T14:13:26.846Z,4.70
2018-03-15T14:15:55.153Z,4.70
2018-03-15T14:18:22.736Z,4.80
2018-03-15T14:20:50.280Z,4.80
2018-03-15T14:23:18.596Z,4.40
2018-03-15T14:25:46.155Z,4.40
2018-03-15T14:28:13.738Z,4.30
2018-03-15T14:30:41.298Z,4.20
2018-03-15T14:33:08.841Z,4.20
2018-03-15T14:35:37.165Z,4.30
2018-03-15T14:38:04.726Z,4.20
2018-03-15T14:40:32.293Z,4.30
2018-03-15T14:42:59.851Z,4.20
2018-03-15T14:45:28.163Z,4.00
2018-03-15T14:47:55.701Z,4.00
2018-03-15T14:50:24.027Z,4.10
2018-03-15T14:52:51.566Z,4.10
2018-03-15T14:55:19.160Z,4.10
2018-03-15T14:57:46.695Z,4.00
2018-03-15T15:00:14.256Z,3.90
2018-03-15T15:02:41.795Z,3.80
2018-03-15T15:05:09.376Z,3.80
2018-03-15T15:07:36.950Z,3.70
2018-03-15T15:10:04.503Z,3.60
2018-03-15T15:12:32.051Z,3.60
2018-03-15T15:15:00.358Z,3.60
2018-03-15T15:17:27.922Z,3.60
2018-03-15T15:19:55.456Z,3.60
2018-03-15T15:22:23.008Z,3.60
2018-03-15T15:24:50.541Z,3.60
2018-03-15T15:27:18.883Z,3.70
2018-03-15T15:29:46.425Z,3.70
2018-03-15T15:32:14.915Z,3.70
2018-03-15T15:34:42.528Z,3.70
2018-03-15T15:37:10.084Z,3.70
2018-03-15T15:39:37.624Z,3.80
2018-03-15T15:42:05.185Z,3.80
2018-03-15T15:44:32.720Z,3.80
2018-03-15T15:47:00.281Z,3.90
2018-03-15T15:49:27.826Z,3.90
2018-03-15T15:51:55.376Z,3.90
2018-03-15T15:54:22.913Z,3.80
2018-03-15T15:56:50.489Z,3.80
2018-03-15T15:59:18.034Z,3.80
2018-03-15T16:01:45.578Z,3.70
2018-03-15T16:04:13.146Z,3.70
2018-03-15T16:06:40.675Z,3.70
2018-03-15T16:09:08.457Z,3.70
2018-03-15T16:11:36.765Z,3.70
2018-03-15T16:14:04.339Z,3.70
2018-03-15T16:16:31.875Z,3.70
2018-03-15T16:18:59.433Z,3.80
2018-03-15T16:21:26.969Z,3.80
2018-03-15T16:23:54.550Z,3.80
2018-03-15T16:26:22.086Z,3.80
2018-03-15T16:28:50.405Z,3.60
2018-03-15T16:31:17.990Z,3.60
2018-03-15T16:33:45.519Z,3.60
2018-03-15T16:36:13.080Z,3.50
2018-03-15T16:38:41.405Z,3.40
2018-03-15T16:41:08.936Z,3.40
2018-03-15T16:43:36.508Z,3.40
2018-03-15T16:46:04.820Z,3.30
2018-03-15T16:48:33.133Z,3.30
2018-03-15T16:51:00.678Z,3.30
2018-03-15T16:53:29.002Z,3.20
2018-03-15T16:55:57.317Z,3.20
2018-03-15T16:58:24.885Z,3.10
2018-03-15T17:00:52.465Z,3.10
2018-03-15T17:03:19.996Z,3.00
2018-03-15T17:05:47.564Z,3.00
2018-03-15T17:08:15.091Z,2.90
2018-03-15T17:10:42.631Z,2.90
2018-03-15T17:13:10.172Z,2.90
2018-03-15T17:15:37.723Z,2.80
2018-03-15T17:18:06.019Z,2.60
2018-03-15T17:20:34.340Z,2.60
2018-03-15T17:23:01.884Z,2.60
2018-03-15T17:25:29.440Z,2.50
2018-03-15T17:27:57.750Z,2.40
2018-03-15T17:30:25.312Z,2.40
2018-03-15T17:32:52.880Z,2.40
2018-03-15T17:35:21.209Z,2.30
2018-03-15T17:37:48.745Z,2.30
2018-03-15T17:40:17.076Z,2.20
2018-03-15T17:42:44.677Z,2.20
2018-03-15T17:45:12.191Z,2.20
2018-03-15T17:47:39.778Z,2.20
2018-03-15T17:50:07.340Z,2.10
2018-03-15T17:52:34.901Z,2.10
2018-03-15T17:55:02.449Z,2.10
2018-03-15T17:57:30.023Z,2.00
2018-03-15T17:59:58.394Z,2.00
2018-03-15T18:02:25.944Z,1.90
2018-03-15T18:04:53.494Z,1.90
2018-03-15T18:07:21.048Z,1.90
2018-03-15T18:09:49.348Z,1.90
2018-03-15T18:12:16.922Z,1.90
2018-03-15T18:14:44.461Z,1.90
2018-03-15T18:17:12.027Z,2.00
2018-03-15T18:19:39.551Z,1.90
2018-03-15T18:22:07.083Z,1.90
2018-03-15T18:24:34.636Z,1.90
2018-03-15T18:27:02.174Z,1.90
2018-03-15T18:29:29.732Z,1.90
2018-03-15T18:31:57.329Z,1.80
2018-03-15T18:34:24.905Z,1.80
2018-03-15T18:36:52.472Z,1.80
2018-03-15T18:39:20.057Z,1.70
2018-03-15T18:41:47.599Z,1.70
2018-03-15T18:44:16.485Z,1.60
2018-03-15T18:46:44.790Z,1.60
2018-03-15T18:49:12.339Z,1.60
2018-03-15T18:51:40.682Z,1.50
2018-03-15T18:54:08.249Z,1.50
2018-03-15T18:56:35.800Z,1.50
2018-03-15T18:59:03.384Z,1.40
2018-03-15T19:01:30.911Z,1.40
2018-03-15T19:03:58.477Z,1.30
2018-03-15T19:06:26.017Z,1.30
2018-03-15T19:08:56.283Z,1.30
2018-03-15T19:11:23.874Z,1.20
2018-03-15T19:13:52.183Z,1.20
2018-03-15T19:16:19.815Z,1.10
2018-03-15T19:18:48.163Z,1.10
2018-03-15T19:21:15.721Z,1.10
2018-03-15T19:23:43.265Z,1.00
2018-03-15T19:26:11.583Z,0.90
2018-03-15T19:28:39.126Z,0.90
2018-03-15T19:31:07.453Z,0.80
2018-03-15T19:33:34.988Z,0.80
2018-03-15T19:36:03.306Z,0.80
2018-03-15T19:38:30.853Z,0.80
2018-03-15T19:40:59.240Z,0.70
2018-03-15T19:43:27.541Z,0.70
2018-03-15T19:45:55.111Z,0.70
2018-03-15T19:48:22.692Z,0.70
2018-03-15T19:50:50.233Z,0.70
2018-03-15T19:53:17.826Z,0.70
2018-03-15T19:55:45.363Z,0.70
2018-03-15T19:58:12.928Z,0.70
2018-03-15T20:00:40.464Z,0.70
2018-03-15T20:03:08.017Z,0.80
2018-03-15T20:05:35.557Z,0.80
2018-03-15T20:08:03.154Z,0.80
2018-03-15T20:10:30.704Z,0.70
2018-03-15T20:12:58.267Z,0.70
2018-03-15T20:15:26.264Z,0.70
2018-03-15T20:17:54.577Z,0.70
2018-03-15T20:20:22.145Z,0.70
2018-03-15T20:26:00.721Z,0.70
2018-03-15T20:28:34.033Z,0.70
2018-03-15T20:31:01.616Z,0.70
2018-03-15T20:33:34.901Z,0.70
2018-03-15T20:36:02.421Z,0.70
2018-03-15T20:38:29.964Z,0.70
2018-03-15T20:41:03.171Z,0.70
2018-03-15T20:43:30.722Z,0.70
2018-03-15T20:46:03.890Z,0.70
2018-03-15T20:48:37.120Z,0.70
2018-03-15T20:51:04.680Z,0.70
2018-03-15T20:53:33.037Z,0.70
2018-03-15T20:56:00.633Z,0.60
2018-03-15T20:58:28.232Z,0.70
2018-03-15T21:00:55.809Z,0.60
2018-03-15T21:03:23.392Z,0.60
2018-03-15T21:05:50.957Z,0.60
2018-03-15T21:08:19.465Z,0.70
2018-03-15T21:10:47.003Z,0.70
2018-03-15T21:13:14.586Z,0.60
2018-03-15T21:15:42.134Z,0.60
2018-03-15T21:18:10.477Z,0.60
2018-03-15T21:20:38.025Z,0.50
2018-03-15T21:23:05.605Z,0.60
2018-03-15T21:25:33.180Z,0.60
2018-03-15T21:30:34.311Z,0.60
2018-03-15T21:33:01.884Z,0.60
2018-03-15T21:35:29.439Z,0.60
2018-03-15T21:37:57.053Z,0.60
2018-03-15T21:40:24.605Z,0.60
2018-03-15T21:42:52.173Z,0.60
2018-03-15T21:45:19.726Z,0.70
2018-03-15T21:47:47.290Z,0.70
2018-03-15T21:50:14.834Z,0.70
2018-03-15T21:52:42.414Z,0.70
2018-03-15T21:55:09.956Z,0.70
2018-03-15T21:57:37.502Z,0.70
2018-03-15T22:00:05.829Z,0.80
2018-03-15T22:02:33.376Z,0.80
2018-03-15T22:05:00.954Z,0.80
2018-03-15T22:07:29.266Z,0.80
2018-03-15T22:09:56.870Z,0.80
2018-03-15T22:12:24.464Z,0.80
2018-03-15T22:17:25.834Z,0.80
2018-03-15T22:19:53.439Z,0.80
2018-03-15T22:22:21.747Z,0.80
2018-03-15T22:24:49.339Z,0.80
2018-03-15T22:27:16.884Z,0.80
2018-03-15T22:29:45.356Z,0.80
2018-03-15T22:32:12.920Z,0.80
2018-03-15T22:34:40.477Z,0.90
2018-03-15T22:37:08.045Z,0.80
2018-03-15T22:39:35.598Z,0.80
2018-03-15T22:42:03.182Z,0.80
2018-03-15T22:44:30.722Z,0.80
2018-03-15T22:46:58.280Z,0.80
2018-03-15T22:49:26.854Z,0.90
2018-03-15T22:51:54.532Z,0.80
2018-03-15T22:54:22.853Z,0.90
2018-03-15T22:56:50.419Z,0.80
2018-03-15T22:59:17.961Z,0.90
2018-03-15T23:01:45.529Z,0.90
2018-03-15T23:04:13.075Z,0.90
2018-03-15T23:06:41.412Z,0.90
2018-03-15T23:09:09.726Z,0.80
2018-03-15T23:11:37.275Z,0.80
2018-03-15T23:14:05.602Z,0.80
2018-03-15T23:16:33.144Z,0.80
2018-03-15T23:19:00.696Z,0.80
2018-03-15T23:21:29.002Z,0.80
2018-03-15T23:23:56.559Z,0.80
2018-03-15T23:26:25.785Z,0.80
2018-03-15T23:28:53.345Z,0.80
2018-03-15T23:31:21.666Z,0.80
2018-03-15T23:33:49.253Z,0.80
2018-03-15T23:36:16.822Z,0.80
2018-03-15T23:38:44.364Z,0.80
2018-03-15T23:41:11.920Z,0.80
2018-03-15T23:43:40.230Z,0.80
2018-03-15T23:46:08.109Z,0.80
2018-03-15T23:48:35.669Z,0.80
2018-03-15T23:51:03.988Z,0.80
2018-03-15T23:53:31.528Z,0.80
2018-03-15T23:55:59.865Z,0.90
2018-03-15T23:58:27.431Z,0.70
